Time;durP1;ratioP1;P1;durP2;ratioP2;P2;SDS_P1;SDS_P2;PMS_P1;PMS_P2;Temp;Humidity;BMP_temperature;BMP_pressure;BME280_temperature;BME280_humidity;BME280_pressure;Samples;Min_cycle;Max_cycle;Signal;HPM_P1;HPM_P2
2023/03/14 00:02:11;;;;;;;9.35;2.67;;;;;;;;;;5078167;27;99544;-77
2023/03/14 00:04:38;;;;;;;13.57;3.33;;;;;;;;;;5060288;27;98305;-77
2023/03/14 00:07:04;;;;;;;11.82;2.75;;;;;;;;;;5043738;27;101280;-78
2023/03/14 00:09:31;;;;;;;15.70;2.92;;;;;;;;;;5060745;27;98965;-77
2023/03/14 00:11:57;;;;;;;11.68;2.78;;;;;;;;;;5060133;27;98162;-78
2023/03/14 00:14:24;;;;;;;9.32;2.60;;;;;;;;;;5079586;27;98873;-78
2023/03/14 00:16:51;;;;;;;10.10;2.58;;;;;;;;;;5055644;27;101173;-77
2023/03/14 00:19:17;;;;;;;7.40;2.22;;;;;;;;;;5060971;27;97568;-79
2023/03/14 00:21:43;;;;;;;11.25;2.63;;;;;;;;;;5080887;27;98242;-78
2023/03/14 00:24:10;;;;;;;17.52;2.88;;;;;;;;;;5078975;27;98478;-79
2023/03/14 00:26:36;;;;;;;11.55;2.75;;;;;;;;;;5059132;27;101173;-79
2023/03/14 00:29:03;;;;;;;9.38;2.35;;;;;;;;;;5061068;27;98801;-79
2023/03/14 00:31:29;;;;;;;10.05;2.28;;;;;;;;;;5058423;27;98070;-77
2023/03/14 00:33:56;;;;;;;11.32;2.78;;;;;;;;;;5078652;27;99400;-78
2023/03/14 00:36:23;;;;;;;11.20;2.55;;;;;;;;;;5058174;27;98806;-77
2023/03/14 00:38:50;;;;;;;7.15;2.00;;;;;;;;;;5068422;27;98540;-78
2023/03/14 00:41:19;;;;;;;9.95;2.30;;;;;;;;;;5062056;27;100940;-77
2023/03/14 00:43:46;;;;;;;11.55;2.58;;;;;;;;;;5061945;27;97653;-77
2023/03/14 00:46:12;;;;;;;9.15;2.25;;;;;;;;;;5058938;27;100342;-77
2023/03/14 00:48:39;;;;;;;9.10;2.10;;;;;;;;;;5071971;27;98711;-77
2023/03/14 00:51:06;;;;;;;7.95;2.03;;;;;;;;;;5056631;27;99484;-77
2023/03/14 00:53:36;;;;;;;9.52;2.40;;;;;;;;;;5071640;27;101152;-77
2023/03/14 00:56:07;;;;;;;10.43;2.10;;;;;;;;;;5042223;27;101815;-78
2023/03/14 00:58:33;;;;;;;9.00;1.90;;;;;;;;;;5052684;27;98496;-77
2023/03/14 01:01:05;;;;;;;8.43;1.88;;;;;;;;;;5076751;27;98884;-77
2023/03/14 01:03:31;;;;;;;8.98;1.73;;;;;;;;;;5080972;27;99505;-78
2023/03/14 01:06:17;;;;;;;7.22;1.85;;;;;;;;;;5077797;27;99081;-77
2023/03/14 01:08:44;;;;;;;7.07;1.75;;;;;;;;;;5059178;27;98354;-76
2023/03/14 01:11:13;;;;;;;6.30;1.73;;;;;;;;;;5057999;27;98941;-78
2023/03/14 01:13:40;;;;;;;9.95;1.83;;;;;;;;;;5078344;27;98390;-78
2023/03/14 01:16:08;;;;;;;10.15;1.83;;;;;;;;;;5059494;27;99571;-77
2023/03/14 01:18:36;;;;;;;7.35;1.50;;;;;;;;;;5050513;27;99010;-78
2023/03/14 01:21:03;;;;;;;7.65;1.67;;;;;;;;;;5059433;27;101289;-78
2023/03/14 01:23:30;;;;;;;6.32;1.50;;;;;;;;;;5059262;27;101803;-79
2023/03/14 01:25:56;;;;;;;9.02;2.00;;;;;;;;;;5049235;27;98943;-77
2023/03/14 01:28:23;;;;;;;7.53;1.70;;;;;;;;;;5060285;27;101646;-77
2023/03/14 01:30:49;;;;;;;7.38;1.67;;;;;;;;;;5061321;27;98536;-77
2023/03/14 01:33:16;;;;;;;4.85;1.40;;;;;;;;;;5079244;27;98421;-78
2023/03/14 01:35:43;;;;;;;7.47;1.67;;;;;;;;;;5059324;27;101048;-77
2023/03/14 01:38:10;;;;;;;7.15;1.67;;;;;;;;;;5054273;27;98256;-77
2023/03/14 01:40:45;;;;;;;4.70;1.40;;;;;;;;;;5071777;27;98878;-78
2023/03/14 01:43:17;;;;;;;6.88;1.40;;;;;;;;;;5057309;27;101384;-78
2023/03/14 01:46:02;;;;;;;4.63;1.30;;;;;;;;;;5070700;27;98189;-77
2023/03/14 01:48:32;;;;;;;5.75;1.40;;;;;;;;;;5051352;27;100521;-78
2023/03/14 01:50:59;;;;;;;7.25;1.50;;;;;;;;;;5042186;27;98407;-78
2023/03/14 01:53:26;;;;;;;8.68;1.90;;;;;;;;;;5078906;27;98774;-78
2023/03/14 01:55:56;;;;;;;7.07;1.60;;;;;;;;;;5059517;27;101801;-79
2023/03/14 01:58:25;;;;;;;8.95;1.63;;;;;;;;;;5061042;27;98348;-78
2023/03/14 02:00:51;;;;;;;5.93;1.45;;;;;;;;;;5061450;27;98350;-78
2023/03/14 02:03:20;;;;;;;5.35;1.67;;;;;;;;;;5054538;27;101469;-78
2023/03/14 02:05:48;;;;;;;7.88;1.38;;;;;;;;;;5040870;27;99331;-78
2023/03/14 02:08:19;;;;;;;6.90;1.50;;;;;;;;;;5059861;27;100490;-78
2023/03/14 02:10:49;;;;;;;7.00;1.50;;;;;;;;;;5079903;27;98731;-79
2023/03/14 02:13:21;;;;;;;8.25;1.55;;;;;;;;;;5057653;27;99382;-79
2023/03/14 02:15:59;;;;;;;9.90;1.45;;;;;;;;;;5041840;27;101757;-79
2023/03/14 02:19:05;;;;;;;6.75;1.70;;;;;;;;;;4994249;28;98265;-79
2023/03/14 02:21:31;;;;;;;;;;;;;;;;;;4978903;28;98327;-77
2023/03/14 02:23:58;;;;;;;6.43;1.27;;;;;;;;;;5000698;27;100816;-79
2023/03/14 02:26:45;;;;;;;8.48;1.52;;;;;;;;;;5062346;27;98401;-78
2023/03/14 02:29:11;;;;;;;5.07;1.40;;;;;;;;;;5077348;27;98327;-78
2023/03/14 02:31:38;;;;;;;18.38;1.70;;;;;;;;;;5058230;27;100823;-77
2023/03/14 02:34:05;;;;;;;7.20;1.40;;;;;;;;;;5061655;27;98621;-78
2023/03/14 02:36:32;;;;;;;6.50;1.42;;;;;;;;;;5041457;27;101408;-78
2023/03/14 02:39:11;;;;;;;4.55;1.40;;;;;;;;;;5059056;27;98644;-78
2023/03/14 02:41:42;;;;;;;9.13;3.03;;;;;;;;;;5034387;27;100969;-77
2023/03/14 02:44:08;;;;;;;;;;;;;;;;;;5042207;27;100709;-78
2023/03/14 02:46:35;;;;;;;5.10;1.20;;;;;;;;;;5041324;27;118892;-78
2023/03/14 02:49:02;;;;;;;4.35;1.25;;;;;;;;;;5078537;27;98415;-78
2023/03/14 02:51:31;;;;;;;2.83;1.20;;;;;;;;;;5059427;27;101212;-79
2023/03/14 02:53:58;;;;;;;4.47;1.20;;;;;;;;;;5045145;27;98787;-78
2023/03/14 02:56:24;;;;;;;4.72;1.30;;;;;;;;;;5057509;27;102167;-78
2023/03/14 02:58:51;;;;;;;6.03;1.50;;;;;;;;;;5057862;27;98354;-78
2023/03/14 03:01:47;;;;;;;4.43;1.25;;;;;;;;;;5038204;27;99839;-78
2023/03/14 03:04:13;;;;;;;4.53;1.40;;;;;;;;;;5076871;27;99143;-78
2023/03/14 03:06:40;;;;;;;6.80;1.50;;;;;;;;;;5075991;27;98472;-79
2023/03/14 03:09:06;;;;;;;5.78;1.50;;;;;;;;;;5052546;27;101199;-79
2023/03/14 03:11:34;;;;;;;;;;;;;;;;;;5058251;27;101500;-78
2023/03/14 03:14:00;;;;;;;5.55;1.30;;;;;;;;;;5061244;27;97905;-77
2023/03/14 03:16:28;;;;;;;6.18;1.40;;;;;;;;;;5065010;27;99460;-76
2023/03/14 03:18:54;;;;;;;5.60;1.40;;;;;;;;;;5075513;27;98268;-77
2023/03/14 03:21:23;;;;;;;6.45;1.60;;;;;;;;;;5057411;27;100608;-78
2023/03/14 03:23:50;;;;;;;5.43;1.30;;;;;;;;;;5055518;27;101318;-77
2023/03/14 03:26:16;;;;;;;6.63;1.48;;;;;;;;;;5058681;27;98391;-77
2023/03/14 03:28:43;;;;;;;5.10;1.25;;;;;;;;;;5058180;27;100697;-77
2023/03/14 03:31:11;;;;;;;6.13;1.48;;;;;;;;;;5060061;27;101375;-78
2023/03/14 03:33:38;;;;;;;5.47;1.40;;;;;;;;;;5058724;27;98186;-78
2023/03/14 03:36:05;;;;;;;5.38;1.48;;;;;;;;;;5041172;27;100915;-78
2023/03/14 03:38:35;;;;;;;7.07;1.63;;;;;;;;;;5057723;27;100308;-79
2023/03/14 03:41:04;;;;;;;5.25;1.20;;;;;;;;;;5057673;27;100227;-79
2023/03/14 03:43:31;;;;;;;3.88;1.20;;;;;;;;;;5058377;27;101226;-80
2023/03/14 03:46:02;;;;;;;9.70;1.65;;;;;;;;;;5040359;27;99107;-80
2023/03/14 03:48:29;;;;;;;7.22;1.50;;;;;;;;;;5058394;27;102004;-78
2023/03/14 03:50:55;;;;;;;7.38;1.58;;;;;;;;;;5056600;27;106590;-77
2023/03/14 03:53:22;;;;;;;4.38;1.23;;;;;;;;;;5058073;27;98346;-78
2023/03/14 03:56:01;;;;;;;6.60;1.25;;;;;;;;;;5074646;27;100900;-81
2023/03/14 03:58:27;;;;;;;;;;;;;;;;;;5058790;27;102003;-82
2023/03/14 04:00:55;;;;;;;4.93;1.25;;;;;;;;;;5081000;27;98250;-82
2023/03/14 04:03:21;;;;;;;5.93;1.15;;;;;;;;;;5058909;27;101022;-83
2023/03/14 04:05:59;;;;;;;5.55;1.30;;;;;;;;;;5052757;27;98201;-83
2023/03/14 04:08:25;;;;;;;5.57;1.45;;;;;;;;;;5059099;27;100261;-82
2023/03/14 04:10:55;;;;;;;6.82;1.35;;;;;;;;;;5059276;27;102474;-84
2023/03/14 04:13:34;;;;;;;5.78;1.40;;;;;;;;;;5059266;27;98056;-82
2023/03/14 04:16:02;;;;;;;;;;;;;;;;;;5043017;27;100481;-84
2023/03/14 04:18:30;;;;;;;5.50;1.30;;;;;;;;;;5056944;27;111284;-84
2023/03/14 04:20:57;;;;;;;4.68;1.35;;;;;;;;;;5061940;27;98332;-84
2023/03/14 04:23:31;;;;;;;7.97;1.45;;;;;;;;;;5065673;27;99796;-83
2023/03/14 04:25:57;;;;;;;7.90;1.50;;;;;;;;;;5080810;27;98654;-84
2023/03/14 04:28:24;;;;;;;5.40;1.38;;;;;;;;;;5045958;27;100573;-84
2023/03/14 04:30:50;;;;;;;5.22;1.30;;;;;;;;;;5061318;27;101348;-83
2023/03/14 04:33:21;;;;;;;5.05;1.38;;;;;;;;;;5078652;27;98207;-85
2023/03/14 04:35:55;;;;;;;7.10;1.33;;;;;;;;;;5045343;27;101221;-84
2023/03/14 04:38:22;;;;;;;4.22;1.13;;;;;;;;;;5041377;27;101191;-84
2023/03/14 04:40:49;;;;;;;7.78;1.60;;;;;;;;;;5040824;27;98757;-82
2023/03/14 04:43:18;;;;;;;7.88;1.42;;;;;;;;;;5064167;27;101074;-81
2023/03/14 04:45:49;;;;;;;6.47;1.70;;;;;;;;;;5059630;27;98565;-79
2023/03/14 04:48:16;;;;;;;7.10;1.60;;;;;;;;;;5061676;27;101260;-80
2023/03/14 04:50:43;;;;;;;6.63;1.15;;;;;;;;;;5059440;27;99883;-80
2023/03/14 04:53:09;;;;;;;5.93;1.20;;;;;;;;;;5061453;27;97893;-80
2023/03/14 04:55:38;;;;;;;8.10;1.60;;;;;;;;;;5040829;27;98925;-81
2023/03/14 04:58:04;;;;;;;6.72;1.30;;;;;;;;;;5060581;27;101969;-81
2023/03/14 05:00:31;;;;;;;6.78;1.52;;;;;;;;;;5059939;27;99581;-82
2023/03/14 05:03:33;;;;;;;6.28;1.40;;;;;;;;;;5014970;28;98953;-81
2023/03/14 05:06:34;;;;;;;7.82;1.30;;;;;;;;;;4977641;28;98768;-81
2023/03/14 05:09:23;;;;;;;7.13;1.42;;;;;;;;;;5038472;27;101654;-83
2023/03/14 05:12:15;;;;;;;10.40;1.42;;;;;;;;;;5031297;27;98644;-83
2023/03/14 05:15:05;;;;;;;6.43;1.30;;;;;;;;;;5064089;27;105589;-83
2023/03/14 05:17:56;;;;;;;5.95;1.40;;;;;;;;;;5061427;27;101255;-82
2023/03/14 05:20:50;;;;;;;4.32;1.20;;;;;;;;;;5031575;27;97733;-80
2023/03/14 05:23:48;;;;;;;5.93;1.45;;;;;;;;;;5031966;27;98755;-82
2023/03/14 05:26:34;;;;;;;6.57;1.35;;;;;;;;;;5076864;27;98335;-82
2023/03/14 05:29:19;;;;;;;4.57;1.30;;;;;;;;;;5054230;27;99178;-81
2023/03/14 05:32:05;;;;;;;8.13;1.80;;;;;;;;;;5065378;27;98399;-80
2023/03/14 05:34:45;;;;;;;6.70;1.55;;;;;;;;;;5057472;27;102139;-82
2023/03/14 05:37:50;;;;;;;5.95;1.40;;;;;;;;;;5029874;28;98145;-82
2023/03/14 05:40:16;;;;;;;5.63;1.42;;;;;;;;;;5034573;27;98289;-82
2023/03/14 05:43:09;;;;;;;4.88;1.30;;;;;;;;;;5018515;27;103190;-83
2023/03/14 05:45:50;;;;;;;5.90;1.20;;;;;;;;;;5057923;27;98182;-83
2023/03/14 05:48:39;;;;;;;6.22;1.45;;;;;;;;;;5076414;27;99202;-82
2023/03/14 05:51:34;;;;;;;4.68;1.40;;;;;;;;;;5020119;27;99002;-82
2023/03/14 05:54:22;;;;;;;4.60;1.13;;;;;;;;;;5058505;27;99628;-83
2023/03/14 05:57:01;;;;;;;5.70;1.50;;;;;;;;;;5057907;27;102901;-82
2023/03/14 05:59:37;;;;;;;4.35;1.13;;;;;;;;;;5059174;27;98580;-82
2023/03/14 06:02:32;;;;;;;8.27;1.60;;;;;;;;;;5076439;27;99754;-82
2023/03/14 06:05:07;;;;;;;4.50;1.40;;;;;;;;;;5058135;27;101085;-82
2023/03/14 06:07:34;;;;;;;4.47;1.40;;;;;;;;;;5041998;27;98404;-82
2023/03/14 06:10:03;;;;;;;6.18;1.65;;;;;;;;;;5044141;27;100752;-83
2023/03/14 06:12:30;;;;;;;4.68;1.30;;;;;;;;;;5058507;27;101373;-82
2023/03/14 06:14:56;;;;;;;5.05;1.30;;;;;;;;;;5080674;27;98210;-80
2023/03/14 06:17:23;;;;;;;4.00;1.40;;;;;;;;;;5058635;27;100085;-80
2023/03/14 06:19:58;;;;;;;7.70;1.60;;;;;;;;;;5060866;27;99649;-80
2023/03/14 06:22:25;;;;;;;4.60;1.60;;;;;;;;;;5058257;27;106293;-80
2023/03/14 06:24:52;;;;;;;6.03;1.48;;;;;;;;;;5056379;27;99314;-81
2023/03/14 06:27:20;;;;;;;5.32;1.50;;;;;;;;;;5076162;27;98072;-80
2023/03/14 06:29:50;;;;;;;5.15;1.65;;;;;;;;;;5057667;27;98490;-81
2023/03/14 06:32:17;;;;;;;4.55;1.27;;;;;;;;;;5077815;27;99052;-81
2023/03/14 06:34:45;;;;;;;5.90;1.70;;;;;;;;;;5039679;27;98279;-81
2023/03/14 06:37:11;;;;;;;5.25;1.60;;;;;;;;;;5057883;27;100900;-80
2023/03/14 06:39:38;;;;;;;5.00;1.70;;;;;;;;;;5057558;27;98494;-80
2023/03/14 06:42:12;;;;;;;6.75;1.58;;;;;;;;;;5062109;27;98667;-80
2023/03/14 06:44:40;;;;;;;4.72;1.50;;;;;;;;;;5056885;27;100870;-80
2023/03/14 06:47:07;;;;;;;5.55;1.65;;;;;;;;;;5056964;27;99070;-80
2023/03/14 06:49:35;;;;;;;4.97;1.38;;;;;;;;;;5057121;27;100346;-80
2023/03/14 06:52:02;;;;;;;6.50;1.75;;;;;;;;;;5057241;27;101266;-80
2023/03/14 06:54:29;;;;;;;5.65;1.70;;;;;;;;;;5057061;27;98948;-79
2023/03/14 06:56:55;;;;;;;4.70;1.73;;;;;;;;;;5057215;27;104730;-80
2023/03/14 06:59:22;;;;;;;3.42;1.30;;;;;;;;;;5075844;27;99056;-80
2023/03/14 07:01:50;;;;;;;4.93;1.35;;;;;;;;;;5060845;27;98629;-82
2023/03/14 07:04:17;;;;;;;2.55;1.10;;;;;;;;;;5076145;27;99218;-80
2023/03/14 07:06:47;;;;;;;3.72;1.00;;;;;;;;;;5056575;27;98225;-82
2023/03/14 07:09:14;;;;;;;3.55;1.10;;;;;;;;;;5075499;27;98533;-80
2023/03/14 07:11:47;;;;;;;3.78;1.40;;;;;;;;;;5046255;27;102062;-79
2023/03/14 07:14:15;;;;;;;2.80;1.05;;;;;;;;;;5056527;27;98206;-78
2023/03/14 07:16:42;;;;;;;3.03;1.00;;;;;;;;;;5060181;27;100566;-79
2023/03/14 07:19:08;;;;;;;1.92;0.93;;;;;;;;;;5056905;27;101448;-79
2023/03/14 07:21:35;;;;;;;2.25;0.95;;;;;;;;;;5056702;27;99912;-79
2023/03/14 07:24:06;;;;;;;3.30;1.00;;;;;;;;;;5043782;27;101125;-79
2023/03/14 07:26:32;;;;;;;2.53;1.20;;;;;;;;;;5056659;27;98428;-80
2023/03/14 07:28:59;;;;;;;4.10;1.00;;;;;;;;;;5041001;27;100991;-80
2023/03/14 07:31:25;;;;;;;2.17;0.90;;;;;;;;;;5040388;27;100601;-80
2023/03/14 07:33:52;;;;;;;2.72;1.00;;;;;;;;;;5057468;27;98257;-80
2023/03/14 07:36:21;;;;;;;1.65;0.80;;;;;;;;;;5050311;27;101361;-78
2023/03/14 07:38:47;;;;;;;4.00;1.23;;;;;;;;;;5055778;27;101049;-80
2023/03/14 07:41:40;;;;;;;3.78;1.10;;;;;;;;;;5027071;27;98488;-81
2023/03/14 07:44:24;;;;;;;3.28;1.00;;;;;;;;;;5076999;27;98581;-80
2023/03/14 07:46:52;;;;;;;;;;;;;;;;;;5079726;27;99609;-81
2023/03/14 07:49:18;;;;;;;3.60;1.10;;;;;;;;;;5079845;27;117443;-82
2023/03/14 07:51:47;;;;;;;3.70;1.00;;;;;;;;;;5058594;27;98939;-81
2023/03/14 07:54:13;;;;;;;2.92;0.88;;;;;;;;;;5060528;27;98018;-81
2023/03/14 07:56:40;;;;;;;2.92;1.00;;;;;;;;;;5057549;27;100508;-81
2023/03/14 07:59:07;;;;;;;5.00;1.10;;;;;;;;;;5060097;27;98847;-79
2023/03/14 08:01:33;;;;;;;2.00;0.77;;;;;;;;;;5076514;27;100180;-80
2023/03/14 08:04:00;;;;;;;3.22;0.98;;;;;;;;;;5078475;27;99507;-80
2023/03/14 08:06:26;;;;;;;1.98;0.80;;;;;;;;;;5075995;27;99082;-83
2023/03/14 08:08:52;;;;;;;7.13;1.00;;;;;;;;;;5081751;27;98627;-83
2023/03/14 08:11:19;;;;;;;2.75;0.90;;;;;;;;;;5068843;27;99151;-84
2023/03/14 08:13:49;;;;;;;9.93;1.00;;;;;;;;;;5060629;27;98554;-82
2023/03/14 08:16:17;;;;;;;3.15;0.90;;;;;;;;;;5050514;27;98928;-83
2023/03/14 08:18:43;;;;;;;4.18;0.90;;;;;;;;;;5056115;27;100281;-80
2023/03/14 08:21:10;;;;;;;7.20;1.40;;;;;;;;;;5054941;27;98249;-80
2023/03/14 08:23:36;;;;;;;10.98;1.40;;;;;;;;;;5076214;27;98862;-80
2023/03/14 08:26:03;;;;;;;4.95;1.13;;;;;;;;;;5071078;27;99512;-79
2023/03/14 08:28:32;;;;;;;2.33;1.00;;;;;;;;;;5075576;27;99746;-80
2023/03/14 08:30:59;;;;;;;4.35;1.02;;;;;;;;;;5058456;27;102864;-80
2023/03/14 08:33:27;;;;;;;4.22;1.00;;;;;;;;;;5076087;27;98791;-80
2023/03/14 08:35:57;;;;;;;4.25;1.17;;;;;;;;;;5055849;27;98930;-81
2023/03/14 08:38:24;;;;;;;2.60;1.00;;;;;;;;;;5072242;27;99761;-80
2023/03/14 08:41:00;;;;;;;1.90;0.88;;;;;;;;;;5071595;27;100629;-79
2023/03/14 08:43:27;;;;;;;2.22;1.10;;;;;;;;;;5057478;27;98633;-80
2023/03/14 08:45:56;;;;;;;3.97;0.90;;;;;;;;;;5073443;27;98797;-80
2023/03/14 08:48:23;;;;;;;2.28;0.93;;;;;;;;;;5055580;27;98564;-79
2023/03/14 08:50:49;;;;;;;2.20;1.08;;;;;;;;;;5074762;27;99256;-80
2023/03/14 08:53:16;;;;;;;3.33;0.82;;;;;;;;;;5080423;27;99806;-79
2023/03/14 08:55:42;;;;;;;2.08;0.90;;;;;;;;;;5073284;27;98533;-80
2023/03/14 08:58:08;;;;;;;2.38;0.88;;;;;;;;;;5051486;27;99163;-79
2023/03/14 09:00:35;;;;;;;2.58;1.00;;;;;;;;;;5055295;27;98638;-80
2023/03/14 09:03:01;;;;;;;2.35;0.90;;;;;;;;;;5061845;27;98551;-79
2023/03/14 09:05:28;;;;;;;2.35;0.90;;;;;;;;;;5075904;27;99290;-79
2023/03/14 09:07:54;;;;;;;2.00;0.82;;;;;;;;;;5077852;27;97535;-80
2023/03/14 09:10:21;;;;;;;3.03;0.82;;;;;;;;;;5070646;27;98294;-79
2023/03/14 09:12:47;;;;;;;1.75;0.80;;;;;;;;;;5080539;27;98891;-79
2023/03/14 09:15:14;;;;;;;2.15;0.75;;;;;;;;;;5074185;27;99186;-79
2023/03/14 09:17:42;;;;;;;2.83;0.90;;;;;;;;;;5069691;27;99461;-79
2023/03/14 09:20:08;;;;;;;2.40;0.70;;;;;;;;;;5051226;27;98380;-78
2023/03/14 09:22:35;;;;;;;2.35;0.90;;;;;;;;;;5069360;27;98728;-79
2023/03/14 09:25:03;;;;;;;2.42;0.95;;;;;;;;;;5072496;27;98735;-79
2023/03/14 09:27:29;;;;;;;3.00;0.90;;;;;;;;;;5046068;27;98387;-79
2023/03/14 09:29:56;;;;;;;1.98;0.73;;;;;;;;;;5052588;27;101002;-79
2023/03/14 09:32:22;;;;;;;2.08;0.70;;;;;;;;;;5055521;27;98773;-80
2023/03/14 09:34:49;;;;;;;2.25;0.88;;;;;;;;;;5072743;27;99675;-80
2023/03/14 09:37:16;;;;;;;2.65;0.68;;;;;;;;;;5069706;27;99311;-81
2023/03/14 09:39:42;;;;;;;2.58;0.90;;;;;;;;;;5068742;27;98946;-80
2023/03/14 09:42:12;;;;;;;2.45;0.70;;;;;;;;;;5048341;27;99025;-80
2023/03/14 09:44:52;;;;;;;1.20;0.70;;;;;;;;;;5050086;27;101565;-80
2023/03/14 09:47:19;;;;;;;2.10;0.68;;;;;;;;;;5029319;27;98508;-80
2023/03/14 09:49:46;;;;;;;2.10;0.80;;;;;;;;;;5033660;27;98530;-79
2023/03/14 09:52:17;;;;;;;3.13;0.80;;;;;;;;;;5030856;27;99202;-79
2023/03/14 09:54:46;;;;;;;2.30;0.80;;;;;;;;;;5033579;27;98733;-79
2023/03/14 09:57:15;;;;;;;4.57;0.93;;;;;;;;;;5029868;28;101063;-80
2023/03/14 09:59:43;;;;;;;3.05;0.90;;;;;;;;;;5027215;27;99731;-79
2023/03/14 10:02:15;;;;;;;2.15;0.70;;;;;;;;;;5050089;27;98636;-79
2023/03/14 10:04:44;;;;;;;2.35;0.70;;;;;;;;;;5020685;27;100105;-79
2023/03/14 10:07:19;;;;;;;2.20;0.70;;;;;;;;;;5021560;27;98516;-80
2023/03/14 10:09:47;;;;;;;3.15;1.00;;;;;;;;;;5031120;27;99505;-80
2023/03/14 10:12:14;;;;;;;3.50;1.02;;;;;;;;;;5033309;27;98668;-80
2023/03/14 10:14:51;;;;;;;3.17;0.70;;;;;;;;;;5024554;27;98878;-79
2023/03/14 10:17:18;;;;;;;3.67;0.80;;;;;;;;;;5048856;27;100712;-79
2023/03/14 10:19:59;;;;;;;3.00;0.80;;;;;;;;;;5036342;27;99180;-80
2023/03/14 10:22:29;;;;;;;3.75;0.75;;;;;;;;;;5048087;27;100719;-80
2023/03/14 10:24:59;;;;;;;3.75;1.00;;;;;;;;;;5024482;27;103631;-79
2023/03/14 10:27:32;;;;;;;3.22;0.93;;;;;;;;;;5033508;27;98212;-79
2023/03/14 10:30:02;;;;;;;4.97;1.02;;;;;;;;;;5034123;27;99182;-80
2023/03/14 10:32:37;;;;;;;2.45;0.65;;;;;;;;;;5032750;27;100932;-79
2023/03/14 10:35:11;;;;;;;4.07;0.88;;;;;;;;;;5031795;27;98639;-81
2023/03/14 10:37:48;;;;;;;4.03;1.10;;;;;;;;;;5031250;27;98893;-80
2023/03/14 10:40:14;;;;;;;4.45;0.90;;;;;;;;;;5025656;27;101930;-81
2023/03/14 10:42:44;;;;;;;3.88;0.82;;;;;;;;;;5038048;27;98638;-81
2023/03/14 10:45:25;;;;;;;2.88;0.93;;;;;;;;;;5028816;27;101586;-81
2023/03/14 10:47:52;;;;;;;2.40;0.77;;;;;;;;;;5024743;27;98202;-81
2023/03/14 10:50:28;;;;;;;5.20;1.17;;;;;;;;;;5031452;27;98670;-81
2023/03/14 10:52:55;;;;;;;5.80;1.20;;;;;;;;;;5033214;27;99663;-84
2023/03/14 10:55:28;;;;;;;5.40;1.10;;;;;;;;;;5032055;27;99540;-81
2023/03/14 10:57:54;;;;;;;4.40;1.15;;;;;;;;;;5034876;27;99843;-82
2023/03/14 11:00:22;;;;;;;4.93;1.30;;;;;;;;;;5030745;27;100801;-85
2023/03/14 11:02:54;;;;;;;5.72;1.13;;;;;;;;;;5033043;27;98660;-81
2023/03/14 11:05:40;;;;;;;4.70;0.95;;;;;;;;;;5026134;27;99614;-81
2023/03/14 11:08:12;;;;;;;6.00;1.20;;;;;;;;;;5021003;28;99965;-81
2023/03/14 11:10:43;;;;;;;6.10;1.13;;;;;;;;;;5028622;27;100585;-83
2023/03/14 11:13:12;;;;;;;5.18;1.10;;;;;;;;;;5035170;27;98421;-82
2023/03/14 11:15:39;;;;;;;6.35;1.20;;;;;;;;;;5024419;27;98988;-84
2023/03/14 11:18:15;;;;;;;6.68;1.48;;;;;;;;;;5033880;27;100878;-84
2023/03/14 11:20:46;;;;;;;5.32;0.98;;;;;;;;;;5035907;27;99814;-82
2023/03/14 11:23:23;;;;;;;4.32;1.05;;;;;;;;;;5038057;27;99365;-81
2023/03/14 11:26:00;;;;;;;5.45;1.10;;;;;;;;;;5038900;27;99756;-82
2023/03/14 11:28:36;;;;;;;5.63;1.05;;;;;;;;;;5011412;27;98496;-82
2023/03/14 11:31:09;;;;;;;4.90;1.23;;;;;;;;;;5013492;28;105298;-83
2023/03/14 11:33:43;;;;;;;5.07;1.10;;;;;;;;;;5035270;27;98905;-82
2023/03/14 11:36:11;;;;;;;4.82;1.13;;;;;;;;;;5031555;27;98265;-82
2023/03/14 11:38:43;;;;;;;5.88;1.20;;;;;;;;;;5035976;27;98507;-83
2023/03/14 11:41:11;;;;;;;7.68;1.40;;;;;;;;;;5033828;27;99613;-82
2023/03/14 11:43:42;;;;;;;4.28;1.00;;;;;;;;;;5036483;27;98668;-82
2023/03/14 11:46:14;;;;;;;6.45;1.10;;;;;;;;;;5046424;27;99461;-83
2023/03/14 11:48:43;;;;;;;5.22;1.15;;;;;;;;;;5081401;27;103663;-82
2023/03/14 11:51:22;;;;;;;3.67;0.90;;;;;;;;;;5051018;27;99858;-82
2023/03/14 11:53:58;;;;;;;5.00;1.30;;;;;;;;;;5078020;27;99235;-82
2023/03/14 11:56:31;;;;;;;5.30;1.30;;;;;;;;;;5069330;27;98621;-82
2023/03/14 11:58:59;;;;;;;4.78;1.10;;;;;;;;;;5059091;27;104869;-82
2023/03/14 12:01:36;;;;;;;5.10;1.10;;;;;;;;;;5084276;27;98831;-83
2023/03/14 12:04:09;;;;;;;5.22;1.13;;;;;;;;;;5060290;27;97933;-82
2023/03/14 12:06:45;;;;;;;5.10;1.10;;;;;;;;;;5078212;27;98264;-80
2023/03/14 12:09:12;;;;;;;5.82;1.10;;;;;;;;;;5077845;27;99394;-81
2023/03/14 12:11:42;;;;;;;4.93;1.10;;;;;;;;;;5072213;27;98901;-82
2023/03/14 12:14:19;;;;;;;5.07;1.08;;;;;;;;;;5078300;27;99175;-83
2023/03/14 12:16:48;;;;;;;5.15;1.13;;;;;;;;;;5081874;27;98378;-83
2023/03/14 12:19:24;;;;;;;5.82;1.20;;;;;;;;;;5059598;27;98497;-81
2023/03/14 12:21:52;;;;;;;5.15;1.00;;;;;;;;;;5057997;27;101287;-82
2023/03/14 12:24:22;;;;;;;4.13;1.00;;;;;;;;;;5078216;27;98379;-82
2023/03/14 12:26:52;;;;;;;4.90;0.90;;;;;;;;;;5052942;27;100539;-82
2023/03/14 12:29:18;;;;;;;4.35;1.00;;;;;;;;;;5078068;27;98445;-82
2023/03/14 12:31:49;;;;;;;5.03;1.17;;;;;;;;;;5079849;27;98359;-82
2023/03/14 12:34:15;;;;;;;5.25;1.13;;;;;;;;;;5081554;27;99229;-82
2023/03/14 12:36:48;;;;;;;4.60;1.30;;;;;;;;;;5056219;27;99210;-82
2023/03/14 12:39:34;;;;;;;4.97;0.98;;;;;;;;;;5058197;27;101090;-82
2023/03/14 12:42:02;;;;;;;4.43;1.10;;;;;;;;;;5070247;27;99201;-83
2023/03/14 12:44:29;;;;;;;4.30;1.00;;;;;;;;;;5076720;27;98994;-82
2023/03/14 12:47:18;;;;;;;3.78;1.02;;;;;;;;;;5051979;27;98718;-83
2023/03/14 12:49:46;;;;;;;4.05;1.20;;;;;;;;;;5027969;27;98852;-83
2023/03/14 12:52:14;;;;;;;4.47;1.05;;;;;;;;;;5059796;27;98442;-82
2023/03/14 12:54:44;;;;;;;4.88;1.00;;;;;;;;;;5077050;27;100731;-83
2023/03/14 12:57:35;;;;;;;4.65;1.02;;;;;;;;;;5081528;27;98218;-82
2023/03/14 13:00:06;;;;;;;;;;;;;;;;;;5059256;27;100581;-79
2023/03/14 13:02:43;;;;;;;3.83;0.98;;;;;;;;;;5083331;27;128737;-79
2023/03/14 13:05:22;;;;;;;11.40;1.50;;;;;;;;;;5077486;27;98669;-78
2023/03/14 13:07:54;;;;;;;6.78;1.35;;;;;;;;;;5078242;27;101056;-79
2023/03/14 13:10:27;;;;;;;5.63;1.20;;;;;;;;;;5076265;27;99675;-79
2023/03/14 13:12:54;;;;;;;6.95;1.38;;;;;;;;;;5052459;27;99687;-80
2023/03/14 13:15:28;;;;;;;8.02;1.30;;;;;;;;;;5060760;27;101054;-79
2023/03/14 13:17:59;;;;;;;6.32;1.20;;;;;;;;;;5077501;27;98613;-79
2023/03/14 13:20:31;;;;;;;5.00;1.17;;;;;;;;;;5045055;27;97548;-78
2023/03/14 13:22:57;;;;;;;7.00;1.27;;;;;;;;;;5076984;27;104253;-79
2023/03/14 13:25:29;;;;;;;6.07;1.20;;;;;;;;;;5077362;27;98844;-80
2023/03/14 13:27:55;;;;;;;4.63;1.00;;;;;;;;;;5074545;27;99438;-79
2023/03/14 13:30:35;;;;;;;7.32;1.10;;;;;;;;;;5045241;27;98785;-80
2023/03/14 13:33:03;;;;;;;4.95;1.13;;;;;;;;;;5059314;27;98476;-80
2023/03/14 13:35:38;;;;;;;5.25;1.23;;;;;;;;;;5041580;27;99960;-80
2023/03/14 13:38:04;;;;;;;3.40;1.10;;;;;;;;;;5073160;27;99597;-80
2023/03/14 13:40:38;;;;;;;6.45;1.10;;;;;;;;;;5076376;27;98451;-82
2023/03/14 13:43:18;;;;;;;6.70;1.30;;;;;;;;;;5076856;27;98798;-81
2023/03/14 13:45:49;;;;;;;3.92;0.90;;;;;;;;;;5077248;27;97880;-83
2023/03/14 13:48:16;;;;;;;4.05;1.10;;;;;;;;;;5059584;27;100341;-84
2023/03/14 13:50:43;;;;;;;;;;;;;;;;;;5058610;27;99341;-83
2023/03/14 13:53:11;;;;;;;3.92;1.00;;;;;;;;;;5077775;27;114091;-84
2023/03/14 13:55:38;;;;;;;2.42;0.85;;;;;;;;;;5059317;27;102224;-84
2023/03/14 13:58:04;;;;;;;3.28;0.90;;;;;;;;;;5058501;27;100528;-83
2023/03/14 14:00:31;;;;;;;3.45;0.90;;;;;;;;;;5077474;27;99563;-82
2023/03/14 14:02:58;;;;;;;6.68;1.38;;;;;;;;;;5059791;27;101166;-83
2023/03/14 14:05:29;;;;;;;5.43;1.10;;;;;;;;;;5067199;27;98382;-83
2023/03/14 14:07:56;;;;;;;4.72;1.00;;;;;;;;;;5060697;27;105295;-82
2023/03/14 14:10:22;;;;;;;4.38;1.05;;;;;;;;;;5059331;27;100362;-81
2023/03/14 14:12:52;;;;;;;2.58;0.80;;;;;;;;;;5075033;27;98184;-82
2023/03/14 14:15:21;;;;;;;3.67;0.95;;;;;;;;;;5079223;27;98684;-82
2023/03/14 14:17:52;;;;;;;6.53;0.98;;;;;;;;;;5076189;27;99406;-82
2023/03/14 14:20:24;;;;;;;5.03;0.93;;;;;;;;;;5077039;27;98170;-82
2023/03/14 14:22:52;;;;;;;3.95;1.00;;;;;;;;;;5053830;27;101258;-82
2023/03/14 14:25:18;;;;;;;3.58;0.90;;;;;;;;;;5055808;27;98849;-82
2023/03/14 14:27:49;;;;;;;4.15;0.93;;;;;;;;;;5040539;27;101049;-82
2023/03/14 14:30:19;;;;;;;4.38;1.02;;;;;;;;;;5077331;27;100497;-81
2023/03/14 14:32:49;;;;;;;5.43;1.02;;;;;;;;;;5074827;27;107062;-82
2023/03/14 14:35:30;;;;;;;5.32;1.10;;;;;;;;;;5076324;27;99018;-81
2023/03/14 14:37:56;;;;;;;3.83;1.10;;;;;;;;;;5075338;27;99433;-82
2023/03/14 14:40:24;;;;;;;4.32;1.00;;;;;;;;;;5075475;27;98812;-81
2023/03/14 14:42:51;;;;;;;2.22;0.85;;;;;;;;;;5073582;27;100582;-82
2023/03/14 14:45:19;;;;;;;3.58;0.80;;;;;;;;;;5075993;27;99583;-82
2023/03/14 14:47:50;;;;;;;4.25;0.90;;;;;;;;;;5080035;27;98064;-83
2023/03/14 14:50:21;;;;;;;3.38;0.90;;;;;;;;;;5076928;27;99155;-81
2023/03/14 14:52:49;;;;;;;4.72;1.30;;;;;;;;;;5074743;27;98094;-81
2023/03/14 14:55:19;;;;;;;4.13;0.90;;;;;;;;;;5058027;27;98850;-82
2023/03/14 14:57:54;;;;;;;3.08;0.82;;;;;;;;;;5077265;27;98811;-81
2023/03/14 15:00:22;;;;;;;4.32;1.00;;;;;;;;;;5077927;27;97934;-82
2023/03/14 15:02:51;;;;;;;3.88;0.98;;;;;;;;;;5058064;27;98258;-82